LRTR - TIMISOARA / TRAIAN VUIA

Compiled: 21:30:40 on 19/01/2018

Latest METAR/SPECI Reports

METAR LRTR 192100Z 17001KT 6000 -RA BKN015 OVC040 04/02 Q1012 R11/29//95=

Previous reports

METAR LRTR 192030Z 00000KT 7000 -RA BKN015 OVC026 04/02 Q1012 R11/29//95=
METAR LRTR 192000Z VRB01KT 9999 -RA OVC023 04/03 Q1012 R11/29//95=
METAR LRTR 191930Z 15003KT 9999 -RA OVC024 04/03 Q1011 R11/29//95=
METAR LRTR 191900Z 12004KT 9999 -RA OVC025 04/03 Q1011 R11/29//95=

Latest TAF report

TAF LRTR 191700Z 1918/2018 VRB04KT 8000 -RA BKN020 OVC040 TEMPO 1918/1919 5000 -RA BR BKN015 OVC030 BECMG 1919/1921 3000 BR BKN010 OVC025 TEMPO 1922/2008 0800 FG OVC002 PROB40 TEMPO 2000/2007 0350 -DZ FG VV001 BECMG 2010/2012 9999 NSW SCT020 TEMPO 2016/2018 3000 BR BKN010=

Valid WARNINGS

No valid warnings for LRTR